Connexion

Connexion à votre compte

Identifiant
Mot de passe
Maintenir la connexion active sur ce site

Nous contacter

 Téléphone : +33 (0)4 79 54 41 81

Coordonnées détaillées et accès : cliquez ici

facebook 770688 960 720  logo instagram large

[source: ADDS]
METAR / TAF
LFLB 090930Z AUTO 02006KT 9999 -RA BKN017 OVC028 04/03 Q1001 TEMPO 4000 RA BR BKN006 =
TAF LFLB 090800Z 0909/1009 VRB03KT 8000 -RA BKN020 TEMPO 0909/0918 4000 RA BR BKN006 PROB30 TEMPO 1002/1009 1500 -SN BKN004

SR / SS: 07:04 / 15:52 UTC (Lever/Coucher du soleil le 2022-12-09)
JSN Boot template designed by JoomlaShine.com